WXM80 ListenWXM80 Stop

You find our weather info also at:

UK Metoffice

WeatherCloud

Weather Underground

Northeastern Weather Network

AWEKAS

Citizen Weather Observer Program (CWOP)

HAMweather, WeatherForYou, PWS Weather


Weather Underground History page Text

Daily Summary for February 11, 2018 Units:  Both    English   Metric
« Previous Day
Next Day »
Daily Weekly Monthly Yearly Custom
  High: Low: Average:
Temperature: 57.4 °F /  14.1 °C 41.2 °F /  5.1 °C 48.2 °F /  9 °C
Dew Point: 57.1 °F /  13.9 °C 40.4 °F /  4.7 °C 47.5 °F /  8.6 °C
Humidity: 99 % 96 % 98 %
Wind Speed: 11.9 mph /  19.2 km/h - 2.7 mph /  4.3 km/h
Wind Gust: 19.6 mph /  31.5 km/h - -
Wind:- - South
Pressure: 29.83 in /  1010 hPa 29.60 in /  1002.3 hPa -
Precipitation: 0.72 in /  18.29 mm    
Historical Graphs
 
 
Tabular Data for February 11, 2018
Time Temperature Dew Point Pressure Wind Wind Speed Wind Gust Humidity Rainfall Rate (Hourly)
00:03 43.8 °F /  6.6 °C 43.0 °F /  6.1 °C 29.78 in /  1008.4 hPa Calm     97 % 0.01 in /  0.25 mm
00:08 43.7 °F /  6.5 °C 42.9 °F /  6.1 °C 29.79 in /  1008.7 hPa Calm     97 % 0.01 in /  0.25 mm
00:13 43.4 °F /  6.3 °C 42.6 °F /  5.9 °C 29.78 in /  1008.4 hPa Calm     97 % 0.01 in /  0.25 mm
00:18 43.2 °F /  6.2 °C 42.1 °F /  5.6 °C 29.79 in /  1008.7 hPa Calm     96 % 0.01 in /  0.25 mm
00:24 43.1 °F /  6.2 °C 42.3 °F /  5.7 °C 29.78 in /  1008.4 hPa Calm     97 % 0.01 in /  0.25 mm
00:29 42.9 °F /  6.1 °C 42.1 °F /  5.6 °C 29.79 in /  1008.7 hPa Calm     97 % 0.00 in /  0 mm
00:34 42.8 °F /  6 °C 42.0 °F /  5.6 °C 29.78 in /  1008.4 hPa Calm     97 % 0.00 in /  0 mm
00:39 42.8 °F /  6 °C 42.0 °F /  5.6 °C 29.78 in /  1008.4 hPa Calm     97 % 0.00 in /  0 mm
00:44 42.7 °F /  5.9 °C 41.6 °F /  5.3 °C 29.78 in /  1008.4 hPa Calm     96 % 0.00 in /  0 mm
00:49 42.7 °F /  5.9 °C 41.6 °F /  5.3 °C 29.78 in /  1008.4 hPa Calm     96 % 0.00 in /  0 mm
00:54 42.7 °F /  5.9 °C 41.6 °F /  5.3 °C 29.78 in /  1008.4 hPa Calm   1.2 mph /  1.9 km/h 96 % 0.01 in /  0.25 mm
00:59 42.7 °F /  5.9 °C 41.6 °F /  5.3 °C 29.78 in /  1008.4 hPa Calm     96 % 0.01 in /  0.25 mm
01:04 42.7 °F /  5.9 °C 41.6 °F /  5.3 °C 29.78 in /  1008.4 hPa Calm     96 % 0.01 in /  0.25 mm
01:09 42.9 °F /  6.1 °C 42.1 °F /  5.6 °C 29.78 in /  1008.4 hPa West 0.2 mph /  0.3 km/h   97 % 0.01 in /  0.25 mm
01:14 43.1 °F /  6.2 °C 42.3 °F /  5.7 °C 29.78 in /  1008.4 hPa Calm     97 % 0.02 in /  0.51 mm
01:19 43.4 °F /  6.3 °C 42.6 °F /  5.9 °C 29.78 in /  1008.4 hPa West 0.3 mph /  0.5 km/h 1.0 mph /  1.6 km/h 97 % 0.02 in /  0.51 mm
01:24 43.6 °F /  6.4 °C 42.8 °F /  6 °C 29.79 in /  1008.7 hPa Calm     97 % 0.02 in /  0.51 mm
01:29 43.8 °F /  6.6 °C 43.0 °F /  6.1 °C 29.78 in /  1008.4 hPa Calm     97 % 0.02 in /  0.51 mm
01:34 43.8 °F /  6.6 °C 43.0 °F /  6.1 °C 29.78 in /  1008.4 hPa Calm     97 % 0.03 in /  0.76 mm
01:39 43.8 °F /  6.6 °C 43.0 °F /  6.1 °C 29.78 in /  1008.4 hPa Calm     97 % 0.03 in /  0.76 mm
01:44 43.8 °F /  6.6 °C 43.0 °F /  6.1 °C 29.78 in /  1008.4 hPa Calm     97 % 0.03 in /  0.76 mm
01:49 43.8 °F /  6.6 °C 43.0 °F /  6.1 °C 29.78 in /  1008.4 hPa Calm     97 % 0.04 in /  1.02 mm
01:54 43.7 °F /  6.5 °C 42.9 °F /  6.1 °C 29.78 in /  1008.4 hPa Calm     97 % 0.03 in /  0.76 mm
02:00 43.7 °F /  6.5 °C 42.9 °F /  6.1 °C 29.79 in /  1008.7 hPa Calm     97 % 0.03 in /  0.76 mm
02:05 43.8 °F /  6.6 °C 43.0 °F /  6.1 °C 29.80 in /  1009 hPa Calm     97 % 0.04 in /  1.02 mm
02:10 43.8 °F /  6.6 °C 43.0 °F /  6.1 °C 29.80 in /  1009 hPa Calm     97 % 0.04 in /  1.02 mm
02:15 43.8 °F /  6.6 °C 43.0 °F /  6.1 °C 29.80 in /  1009 hPa West 0.3 mph /  0.5 km/h 2.3 mph /  3.7 km/h 97 % 0.03 in /  0.76 mm
02:20 43.8 °F /  6.6 °C 43.0 °F /  6.1 °C 29.80 in /  1009 hPa Calm   1.2 mph /  1.9 km/h 97 % 0.04 in /  1.02 mm
02:25 43.9 °F /  6.6 °C 43.1 °F /  6.2 °C 29.80 in /  1009 hPa Calm     97 % 0.04 in /  1.02 mm
02:30 44.0 °F /  6.7 °C 43.2 °F /  6.2 °C 29.80 in /  1009 hPa Calm   2.3 mph /  3.7 km/h 97 % 0.04 in /  1.02 mm
02:35 44.1 °F /  6.7 °C 43.3 °F /  6.3 °C 29.80 in /  1009 hPa West 0.7 mph /  1.1 km/h 2.3 mph /  3.7 km/h 97 % 0.04 in /  1.02 mm
02:40 44.2 °F /  6.8 °C 43.4 °F /  6.3 °C 29.80 in /  1009 hPa Calm     97 % 0.04 in /  1.02 mm
02:45 44.2 °F /  6.8 °C 43.4 °F /  6.3 °C 29.79 in /  1008.7 hPa Calm     97 % 0.05 in /  1.27 mm
02:50 44.2 °F /  6.8 °C 43.4 °F /  6.3 °C 29.79 in /  1008.7 hPa Calm     97 % 0.04 in /  1.02 mm
02:55 44.3 °F /  6.8 °C 43.5 °F /  6.4 °C 29.79 in /  1008.7 hPa Calm     97 % 0.04 in /  1.02 mm
03:00 44.3 °F /  6.8 °C 43.5 °F /  6.4 °C 29.78 in /  1008.4 hPa Calm     97 % 0.05 in /  1.27 mm
03:05 44.3 °F /  6.8 °C 43.5 °F /  6.4 °C 29.79 in /  1008.7 hPa Calm     97 % 0.04 in /  1.02 mm
03:10 44.3 °F /  6.8 °C 43.5 °F /  6.4 °C 29.77 in /  1008 hPa West 0.2 mph /  0.3 km/h 1.0 mph /  1.6 km/h 97 % 0.05 in /  1.27 mm
03:15 44.3 °F /  6.8 °C 43.5 °F /  6.4 °C 29.78 in /  1008.4 hPa Calm     97 % 0.05 in /  1.27 mm
03:20 44.4 °F /  6.9 °C 43.6 °F /  6.4 °C 29.78 in /  1008.4 hPa Calm     97 % 0.04 in /  1.02 mm
03:25 44.4 °F /  6.9 °C 43.6 °F /  6.4 °C 29.78 in /  1008.4 hPa Calm     97 % 0.00 in /  0 mm
03:31 44.5 °F /  6.9 °C 43.7 °F /  6.5 °C 29.78 in /  1008.4 hPa West 0.2 mph /  0.3 km/h 1.2 mph /  1.9 km/h 97 % 0.05 in /  1.27 mm
03:36 44.5 °F /  6.9 °C 43.7 °F /  6.5 °C 29.78 in /  1008.4 hPa Calm     97 % 0.00 in /  0 mm
03:41 44.5 °F /  6.9 °C 43.7 °F /  6.5 °C 29.78 in /  1008.4 hPa West 0.1 mph /  0.2 km/h 1.2 mph /  1.9 km/h 97 % 0.05 in /  1.27 mm
03:46 44.5 °F /  6.9 °C 43.7 °F /  6.5 °C 29.79 in /  1008.7 hPa Calm     97 % 0.05 in /  1.27 mm
03:51 44.6 °F /  7 °C 43.8 °F /  6.6 °C 29.79 in /  1008.7 hPa West 0.8 mph /  1.3 km/h 2.3 mph /  3.7 km/h 97 % 0.05 in /  1.27 mm
03:56 44.6 °F /  7 °C 43.8 °F /  6.6 °C 29.79 in /  1008.7 hPa Calm     97 % 0.04 in /  1.02 mm
04:01 44.6 °F /  7 °C 43.8 °F /  6.6 °C 29.79 in /  1008.7 hPa Calm     97 % 0.05 in /  1.27 mm
04:06 44.7 °F /  7.1 °C 43.9 °F /  6.6 °C 29.78 in /  1008.4 hPa Calm     97 % 0.05 in /  1.27 mm
04:11 44.7 °F /  7.1 °C 43.9 °F /  6.6 °C 29.79 in /  1008.7 hPa West 1.8 mph /  2.9 km/h 3.5 mph /  5.6 km/h 97 % 0.04 in /  1.02 mm
04:16 44.8 °F /  7.1 °C 44.0 °F /  6.7 °C 29.78 in /  1008.4 hPa Calm     97 % 0.05 in /  1.27 mm
04:21 44.8 °F /  7.1 °C 44.0 °F /  6.7 °C 29.79 in /  1008.7 hPa Calm     97 % 0.05 in /  1.27 mm
04:26 44.9 °F /  7.2 °C 44.1 °F /  6.7 °C 29.78 in /  1008.4 hPa Calm     97 % 0.04 in /  1.02 mm
04:31 44.9 °F /  7.2 °C 44.1 °F /  6.7 °C 29.78 in /  1008.4 hPa Calm     97 % 0.05 in /  1.27 mm
04:36 44.9 °F /  7.2 °C 44.1 °F /  6.7 °C 29.79 in /  1008.7 hPa Calm     97 % 0.04 in /  1.02 mm
04:41 45.0 °F /  7.2 °C 44.2 °F /  6.8 °C 29.78 in /  1008.4 hPa Calm     97 % 0.04 in /  1.02 mm
04:46 45.0 °F /  7.2 °C 44.2 °F /  6.8 °C 29.78 in /  1008.4 hPa Calm     97 % 0.04 in /  1.02 mm
04:51 45.1 °F /  7.3 °C 44.3 °F /  6.8 °C 29.78 in /  1008.4 hPa Calm     97 % 0.04 in /  1.02 mm
04:56 45.1 °F /  7.3 °C 44.3 °F /  6.8 °C 29.79 in /  1008.7 hPa Calm     97 % 0.05 in /  1.27 mm
05:01 45.1 °F /  7.3 °C 44.3 °F /  6.8 °C 29.79 in /  1008.7 hPa Calm     97 % 0.04 in /  1.02 mm
05:06 45.1 °F /  7.3 °C 44.3 °F /  6.8 °C 29.79 in /  1008.7 hPa Calm     97 % 0.04 in /  1.02 mm
05:11 45.1 °F /  7.3 °C 44.3 °F /  6.8 °C 29.79 in /  1008.7 hPa Calm     97 % 0.04 in /  1.02 mm
05:16 45.1 °F /  7.3 °C 44.3 °F /  6.8 °C 29.79 in /  1008.7 hPa Calm     97 % 0.03 in /  0.76 mm
05:21 45.1 °F /  7.3 °C 44.3 °F /  6.8 °C 29.80 in /  1009 hPa Calm     97 % 0.04 in /  1.02 mm
05:27 45.1 °F /  7.3 °C 44.3 °F /  6.8 °C 29.81 in /  1009.4 hPa Calm     97 % 0.04 in /  1.02 mm
05:32 45.1 °F /  7.3 °C 44.3 °F /  6.8 °C 29.81 in /  1009.4 hPa Calm     97 % 0.03 in /  0.76 mm
05:37 45.2 °F /  7.3 °C 44.4 °F /  6.9 °C 29.81 in /  1009.4 hPa Calm     97 % 0.03 in /  0.76 mm
05:42 45.2 °F /  7.3 °C 44.4 °F /  6.9 °C 29.82 in /  1009.7 hPa Calm     97 % 0.03 in /  0.76 mm
05:47 45.3 °F /  7.4 °C 44.5 °F /  6.9 °C 29.81 in /  1009.4 hPa Calm     97 % 0.03 in /  0.76 mm
05:52 45.3 °F /  7.4 °C 44.5 °F /  6.9 °C 29.81 in /  1009.4 hPa Calm     97 % 0.03 in /  0.76 mm
05:57 45.3 °F /  7.4 °C 44.5 °F /  6.9 °C 29.81 in /  1009.4 hPa Calm     97 % 0.02 in /  0.51 mm
06:02 45.3 °F /  7.4 °C 44.5 °F /  6.9 °C 29.81 in /  1009.4 hPa Calm     97 % 0.02 in /  0.51 mm
06:07 45.3 °F /  7.4 °C 44.5 °F /  6.9 °C 29.81 in /  1009.4 hPa Calm     97 % 0.03 in /  0.76 mm
06:12 45.3 °F /  7.4 °C 44.5 °F /  6.9 °C 29.81 in /  1009.4 hPa Calm     97 % 0.03 in /  0.76 mm
06:17 45.3 °F /  7.4 °C 44.5 °F /  6.9 °C 29.81 in /  1009.4 hPa Calm     97 % 0.02 in /  0.51 mm
06:22 45.2 °F /  7.3 °C 44.4 °F /  6.9 °C 29.81 in /  1009.4 hPa Calm     97 % 0.02 in /  0.51 mm
06:27 45.2 °F /  7.3 °C 44.4 °F /  6.9 °C 29.80 in /  1009 hPa Calm   1.2 mph /  1.9 km/h 97 % 0.02 in /  0.51 mm
06:32 45.2 °F /  7.3 °C 44.4 °F /  6.9 °C 29.79 in /  1008.7 hPa West 1.6 mph /  2.6 km/h 2.3 mph /  3.7 km/h 97 % 0.02 in /  0.51 mm
06:37 45.2 °F /  7.3 °C 44.4 °F /  6.9 °C 29.81 in /  1009.4 hPa Calm     97 % 0.03 in /  0.76 mm
06:42 45.2 °F /  7.3 °C 44.4 °F /  6.9 °C 29.82 in /  1009.7 hPa Calm     97 % 0.02 in /  0.51 mm
06:47 45.2 °F /  7.3 °C 44.4 °F /  6.9 °C 29.82 in /  1009.7 hPa Calm     97 % 0.02 in /  0.51 mm
06:52 45.2 °F /  7.3 °C 44.4 °F /  6.9 °C 29.82 in /  1009.7 hPa Calm     97 % 0.02 in /  0.51 mm
06:58 45.2 °F /  7.3 °C 44.4 °F /  6.9 °C 29.82 in /  1009.7 hPa Calm     97 % 0.02 in /  0.51 mm
07:03 45.2 °F /  7.3 °C 44.4 °F /  6.9 °C 29.83 in /  1010 hPa Calm     97 % 0.02 in /  0.51 mm
07:08 45.3 °F /  7.4 °C 44.5 °F /  6.9 °C 29.82 in /  1009.7 hPa Calm     97 % 0.02 in /  0.51 mm
07:13 45.4 °F /  7.4 °C 44.6 °F /  7 °C 29.83 in /  1010 hPa Calm     97 % 0.02 in /  0.51 mm
07:18 45.4 °F /  7.4 °C 44.6 °F /  7 °C 29.83 in /  1010 hPa Calm     97 % 0.02 in /  0.51 mm
07:23 45.4 °F /  7.4 °C 44.6 °F /  7 °C 29.83 in /  1010 hPa Calm     97 % 0.03 in /  0.76 mm
07:28 45.4 °F /  7.4 °C 44.6 °F /  7 °C 29.83 in /  1010 hPa Calm     97 % 0.03 in /  0.76 mm
07:33 45.4 °F /  7.4 °C 44.6 °F /  7 °C 29.81 in /  1009.4 hPa Calm   1.2 mph /  1.9 km/h 97 % 0.03 in /  0.76 mm
07:38 45.4 °F /  7.4 °C 44.6 °F /  7 °C 29.81 in /  1009.4 hPa West 0.7 mph /  1.1 km/h 3.5 mph /  5.6 km/h 97 % 0.03 in /  0.76 mm
07:43 45.4 °F /  7.4 °C 44.6 °F /  7 °C 29.81 in /  1009.4 hPa NNW 2.1 mph /  3.4 km/h 3.5 mph /  5.6 km/h 97 % 0.03 in /  0.76 mm
07:48 45.5 °F /  7.5 °C 44.7 °F /  7.1 °C 29.81 in /  1009.4 hPa Calm     97 % 0.04 in /  1.02 mm
07:53 45.5 °F /  7.5 °C 44.7 °F /  7.1 °C 29.82 in /  1009.7 hPa Calm     97 % 0.04 in /  1.02 mm
07:58 45.6 °F /  7.6 °C 45.1 °F /  7.3 °C 29.81 in /  1009.4 hPa Calm     98 % 0.04 in /  1.02 mm
08:03 45.7 °F /  7.6 °C 45.2 °F /  7.3 °C 29.81 in /  1009.4 hPa Calm     98 % 0.03 in /  0.76 mm
08:08 45.7 °F /  7.6 °C 45.2 °F /  7.3 °C 29.80 in /  1009 hPa Calm   1.2 mph /  1.9 km/h 98 % 0.03 in /  0.76 mm
08:13 45.7 °F /  7.6 °C 44.9 °F /  7.2 °C 29.81 in /  1009.4 hPa Calm     97 % 0.04 in /  1.02 mm
08:18 45.6 °F /  7.6 °C 44.8 °F /  7.1 °C 29.81 in /  1009.4 hPa NNW 0.4 mph /  0.6 km/h 1.2 mph /  1.9 km/h 97 % 0.04 in /  1.02 mm
08:24 45.4 °F /  7.4 °C 44.6 °F /  7 °C 29.81 in /  1009.4 hPa Calm   1.2 mph /  1.9 km/h 97 % 0.03 in /  0.76 mm
08:29 45.1 °F /  7.3 °C 44.3 °F /  6.8 °C 29.82 in /  1009.7 hPa Calm     97 % 0.03 in /  0.76 mm
08:34 44.9 °F /  7.2 °C 44.1 °F /  6.7 °C 29.81 in /  1009.4 hPa Calm     97 % 0.03 in /  0.76 mm
08:39 44.7 °F /  7.1 °C 43.9 °F /  6.6 °C 29.82 in /  1009.7 hPa Calm     97 % 0.02 in /  0.51 mm
08:44 44.5 °F /  6.9 °C 43.7 °F /  6.5 °C 29.82 in /  1009.7 hPa Calm     97 % 0.02 in /  0.51 mm
08:49 44.4 °F /  6.9 °C 43.6 °F /  6.4 °C 29.82 in /  1009.7 hPa Calm     97 % 0.01 in /  0.25 mm
08:54 44.3 °F /  6.8 °C 43.5 °F /  6.4 °C 29.82 in /  1009.7 hPa Calm     97 % 0.02 in /  0.51 mm
08:59 44.2 °F /  6.8 °C 43.4 °F /  6.3 °C 29.81 in /  1009.4 hPa Calm     97 % 0.03 in /  0.76 mm
09:04 44.2 °F /  6.8 °C 43.4 °F /  6.3 °C 29.81 in /  1009.4 hPa Calm     97 % 0.04 in /  1.02 mm
09:09 44.2 °F /  6.8 °C 43.4 °F /  6.3 °C 29.81 in /  1009.4 hPa Calm     97 % 0.04 in /  1.02 mm
09:14 44.3 °F /  6.8 °C 43.5 °F /  6.4 °C 29.80 in /  1009 hPa NNW 0.2 mph /  0.3 km/h 1.2 mph /  1.9 km/h 97 % 0.03 in /  0.76 mm
09:19 44.4 °F /  6.9 °C 43.6 °F /  6.4 °C 29.81 in /  1009.4 hPa Calm   1.2 mph /  1.9 km/h 97 % 0.03 in /  0.76 mm
09:24 44.5 °F /  6.9 °C 43.7 °F /  6.5 °C 29.81 in /  1009.4 hPa NNW 0.2 mph /  0.3 km/h 1.2 mph /  1.9 km/h 97 % 0.03 in /  0.76 mm
09:29 44.5 °F /  6.9 °C 43.7 °F /  6.5 °C 29.80 in /  1009 hPa Calm   1.2 mph /  1.9 km/h 97 % 0.03 in /  0.76 mm
09:34 44.5 °F /  6.9 °C 43.7 °F /  6.5 °C 29.82 in /  1009.7 hPa Calm   2.3 mph /  3.7 km/h 97 % 0.04 in /  1.02 mm
09:39 44.5 °F /  6.9 °C 43.7 °F /  6.5 °C 29.81 in /  1009.4 hPa Calm     97 % 0.06 in /  1.52 mm
09:44 44.5 °F /  6.9 °C 43.7 °F /  6.5 °C 29.81 in /  1009.4 hPa NNW 0.4 mph /  0.6 km/h 2.3 mph /  3.7 km/h 97 % 0.08 in /  2.03 mm
09:49 44.5 °F /  6.9 °C 43.7 °F /  6.5 °C 29.81 in /  1009.4 hPa Calm   3.5 mph /  5.6 km/h 97 % 0.11 in /  2.79 mm
09:54 44.5 °F /  6.9 °C 43.7 °F /  6.5 °C 29.81 in /  1009.4 hPa NNW 1.4 mph /  2.3 km/h 3.5 mph /  5.6 km/h 97 % 0.12 in /  3.05 mm
10:00 44.4 °F /  6.9 °C 43.6 °F /  6.4 °C 29.81 in /  1009.4 hPa Calm     97 % 0.12 in /  3.05 mm
10:05 44.3 °F /  6.8 °C 43.5 °F /  6.4 °C 29.80 in /  1009 hPa NNW 1.2 mph /  1.9 km/h 3.5 mph /  5.6 km/h 97 % 0.12 in /  3.05 mm
10:10 44.2 °F /  6.8 °C 43.4 °F /  6.3 °C 29.80 in /  1009 hPa NNW 0.9 mph /  1.4 km/h 2.0 mph /  3.2 km/h 97 % 0.14 in /  3.56 mm
10:15 44.0 °F /  6.7 °C 43.2 °F /  6.2 °C 29.79 in /  1008.7 hPa NNW 1.3 mph /  2.1 km/h 3.5 mph /  5.6 km/h 97 % 0.15 in /  3.81 mm
10:20 43.8 °F /  6.6 °C 43.0 °F /  6.1 °C 29.80 in /  1009 hPa NNW 0.2 mph /  0.3 km/h 2.3 mph /  3.7 km/h 97 % 0.15 in /  3.81 mm
10:25 43.7 °F /  6.5 °C 42.9 °F /  6.1 °C 29.80 in /  1009 hPa NNW 2.2 mph /  3.5 km/h 3.5 mph /  5.6 km/h 97 % 0.16 in /  4.06 mm
10:30 43.8 °F /  6.6 °C 43.0 °F /  6.1 °C 29.79 in /  1008.7 hPa ENE 1.5 mph /  2.4 km/h 4.0 mph /  6.4 km/h 97 % 0.16 in /  4.06 mm
10:35 44.0 °F /  6.7 °C 43.2 °F /  6.2 °C 29.79 in /  1008.7 hPa East 4.6 mph /  7.4 km/h 5.8 mph /  9.3 km/h 97 % 0.15 in /  3.81 mm
10:40 44.2 °F /  6.8 °C 43.4 °F /  6.3 °C 29.78 in /  1008.4 hPa East 3.7 mph /  6 km/h 5.8 mph /  9.3 km/h 97 % 0.13 in /  3.3 mm
10:45 44.5 °F /  6.9 °C 43.7 °F /  6.5 °C 29.78 in /  1008.4 hPa East 2.5 mph /  4 km/h 3.5 mph /  5.6 km/h 97 % 0.10 in /  2.54 mm
10:50 44.6 °F /  7 °C 44.1 °F /  6.7 °C 29.78 in /  1008.4 hPa East 1.2 mph /  1.9 km/h 2.3 mph /  3.7 km/h 98 % 0.09 in /  2.29 mm
10:55 44.8 °F /  7.1 °C 44.3 °F /  6.8 °C 29.77 in /  1008 hPa East 4.3 mph /  6.9 km/h 5.0 mph /  8 km/h 98 % 0.07 in /  1.78 mm
11:00 44.9 °F /  7.2 °C 44.4 °F /  6.9 °C 29.77 in /  1008 hPa East 3.2 mph /  5.1 km/h 5.8 mph /  9.3 km/h 98 % 0.06 in /  1.52 mm
11:05 45.0 °F /  7.2 °C 44.5 °F /  6.9 °C 29.77 in /  1008 hPa East 4.4 mph /  7.1 km/h 6.9 mph /  11.1 km/h 98 % 0.04 in /  1.02 mm
11:10 45.2 °F /  7.3 °C 44.7 °F /  7.1 °C 29.76 in /  1007.7 hPa East 2.0 mph /  3.2 km/h 5.8 mph /  9.3 km/h 98 % 0.04 in /  1.02 mm
11:15 45.3 °F /  7.4 °C 44.8 °F /  7.1 °C 29.76 in /  1007.7 hPa East 0.5 mph /  0.8 km/h 2.3 mph /  3.7 km/h 98 % 0.03 in /  0.76 mm
11:20 45.5 °F /  7.5 °C 45.0 °F /  7.2 °C 29.76 in /  1007.7 hPa SSE 1.3 mph /  2.1 km/h 3.5 mph /  5.6 km/h 98 % 0.03 in /  0.76 mm
11:26 45.6 °F /  7.6 °C 45.1 °F /  7.3 °C 29.74 in /  1007 hPa East 3.3 mph /  5.3 km/h 6.0 mph /  9.7 km/h 98 % 0.02 in /  0.51 mm
11:31 45.9 °F /  7.7 °C 45.4 °F /  7.4 °C 29.74 in /  1007 hPa East 3.0 mph /  4.8 km/h 7.0 mph /  11.3 km/h 98 % 0.00 in /  0 mm
11:36 46.0 °F /  7.8 °C 45.5 °F /  7.5 °C 29.75 in /  1007.3 hPa Calm   2.0 mph /  3.2 km/h 98 % 0.00 in /  0 mm
11:41 46.1 °F /  7.8 °C 45.6 °F /  7.6 °C 29.76 in /  1007.7 hPa Calm     98 % 0.00 in /  0 mm
11:46 46.2 °F /  7.9 °C 45.7 °F /  7.6 °C 29.75 in /  1007.3 hPa ENE 2.0 mph /  3.2 km/h 3.0 mph /  4.8 km/h 98 % 0.00 in /  0 mm
11:51 46.4 °F /  8 °C 45.9 °F /  7.7 °C 29.74 in /  1007 hPa NNE 3.5 mph /  5.6 km/h 4.0 mph /  6.4 km/h 98 % 0.02 in /  0.51 mm
11:56 46.4 °F /  8 °C 45.8 °F /  7.7 °C 29.72 in /  1006.3 hPa NNE 5.0 mph /  8 km/h 6.0 mph /  9.7 km/h 98 % 0.00 in /  0 mm
12:01 45.7 °F /  7.6 °C 45.2 °F /  7.3 °C 29.71 in /  1006 hPa NNE 4.9 mph /  7.9 km/h 6.9 mph /  11.1 km/h 98 % 0.02 in /  0.51 mm
12:06 44.9 °F /  7.2 °C 44.1 °F /  6.7 °C 29.72 in /  1006.3 hPa North 2.0 mph /  3.2 km/h 7.0 mph /  11.3 km/h 97 % 0.00 in /  0 mm
12:11 44.3 °F /  6.8 °C 43.5 °F /  6.4 °C 29.73 in /  1006.7 hPa Calm   4.0 mph /  6.4 km/h 97 % 0.00 in /  0 mm
12:16 43.9 °F /  6.6 °C 43.1 °F /  6.2 °C 29.73 in /  1006.7 hPa Calm   3.0 mph /  4.8 km/h 97 % 0.01 in /  0.25 mm
12:21 43.5 °F /  6.4 °C 42.7 °F /  5.9 °C 29.73 in /  1006.7 hPa Calm   1.0 mph /  1.6 km/h 97 % 0.00 in /  0 mm
12:26 43.2 °F /  6.2 °C 42.4 °F /  5.8 °C 29.73 in /  1006.7 hPa NNE 0.3 mph /  0.5 km/h 2.3 mph /  3.7 km/h 97 % 0.02 in /  0.51 mm
12:31 42.9 °F /  6.1 °C 42.1 °F /  5.6 °C 29.72 in /  1006.3 hPa NE 1.0 mph /  1.6 km/h 3.0 mph /  4.8 km/h 97 % 0.00 in /  0 mm
12:36 42.7 °F /  5.9 °C 41.9 °F /  5.5 °C 29.73 in /  1006.7 hPa Calm   3.0 mph /  4.8 km/h 97 % 0.00 in /  0 mm
12:41 42.5 °F /  5.8 °C 41.7 °F /  5.4 °C 29.73 in /  1006.7 hPa ENE 1.0 mph /  1.6 km/h 5.0 mph /  8 km/h 97 % 0.00 in /  0 mm
12:46 42.3 °F /  5.7 °C 41.5 °F /  5.3 °C 29.73 in /  1006.7 hPa ENE 2.0 mph /  3.2 km/h 6.0 mph /  9.7 km/h 97 % 0.00 in /  0 mm
12:51 42.2 °F /  5.7 °C 41.4 °F /  5.2 °C 29.72 in /  1006.3 hPa Calm   3.5 mph /  5.6 km/h 97 % 0.01 in /  0.25 mm
12:56 42.2 °F /  5.7 °C 41.4 °F /  5.2 °C 29.72 in /  1006.3 hPa Calm   3.0 mph /  4.8 km/h 97 % 0.00 in /  0 mm
13:01 42.3 °F /  5.7 °C 41.5 °F /  5.3 °C 29.70 in /  1005.6 hPa ENE 1.9 mph /  3.1 km/h 3.5 mph /  5.6 km/h 97 % 0.03 in /  0.76 mm
13:06 42.5 °F /  5.8 °C 41.7 °F /  5.4 °C 29.69 in /  1005.3 hPa East 2.7 mph /  4.3 km/h 5.0 mph /  8 km/h 97 % 0.03 in /  0.76 mm
13:11 42.8 °F /  6 °C 42.3 °F /  5.7 °C 29.69 in /  1005.3 hPa ENE 1.7 mph /  2.7 km/h 3.5 mph /  5.6 km/h 98 % 0.03 in /  0.76 mm
13:16 42.9 °F /  6.1 °C 42.4 °F /  5.8 °C 29.68 in /  1005 hPa NE 2.6 mph /  4.2 km/h 3.5 mph /  5.6 km/h 98 % 0.03 in /  0.76 mm
13:21 42.8 °F /  6 °C 42.3 °F /  5.7 °C 29.67 in /  1004.6 hPa ENE 1.7 mph /  2.7 km/h 3.5 mph /  5.6 km/h 98 % 0.03 in /  0.76 mm
13:26 42.7 °F /  5.9 °C 41.9 °F /  5.5 °C 29.68 in /  1005 hPa Calm     97 % 0.03 in /  0.76 mm
13:31 42.4 °F /  5.8 °C 41.6 °F /  5.3 °C 29.69 in /  1005.3 hPa NE 0.2 mph /  0.3 km/h 1.2 mph /  1.9 km/h 97 % 0.04 in /  1.02 mm
13:36 42.4 °F /  5.8 °C 41.6 °F /  5.3 °C 29.68 in /  1005 hPa NE 1.2 mph /  1.9 km/h 3.5 mph /  5.6 km/h 97 % 0.05 in /  1.27 mm
13:41 42.4 °F /  5.8 °C 41.6 °F /  5.3 °C 29.67 in /  1004.6 hPa NNE 2.6 mph /  4.2 km/h 5.8 mph /  9.3 km/h 97 % 0.06 in /  1.52 mm
13:46 42.3 °F /  5.7 °C 41.5 °F /  5.3 °C 29.66 in /  1004.3 hPa NNE 0.5 mph /  0.8 km/h 3.0 mph /  4.8 km/h 97 % 0.06 in /  1.52 mm
13:51 42.2 °F /  5.7 °C 41.4 °F /  5.2 °C 29.65 in /  1003.9 hPa NNE 1.8 mph /  2.9 km/h 3.5 mph /  5.6 km/h 97 % 0.07 in /  1.78 mm
13:56 41.9 °F /  5.5 °C 41.1 °F /  5.1 °C 29.65 in /  1003.9 hPa ENE 2.6 mph /  4.2 km/h 4.6 mph /  7.4 km/h 97 % 0.07 in /  1.78 mm
14:01 41.5 °F /  5.3 °C 40.7 °F /  4.8 °C 29.65 in /  1003.9 hPa ENE 0.9 mph /  1.4 km/h 2.3 mph /  3.7 km/h 97 % 0.06 in /  1.52 mm
14:06 41.3 °F /  5.2 °C 40.5 °F /  4.7 °C 29.65 in /  1003.9 hPa Calm   1.2 mph /  1.9 km/h 97 % 0.07 in /  1.78 mm
14:12 41.2 °F /  5.1 °C 40.4 °F /  4.7 °C 29.65 in /  1003.9 hPa Calm     97 % 0.07 in /  1.78 mm
14:17 41.3 °F /  5.2 °C 40.5 °F /  4.7 °C 29.65 in /  1003.9 hPa Calm   1.2 mph /  1.9 km/h 97 % 0.06 in /  1.52 mm
14:22 41.3 °F /  5.2 °C 40.5 °F /  4.7 °C 29.65 in /  1003.9 hPa SSE 0.5 mph /  0.8 km/h 5.0 mph /  8 km/h 97 % 0.07 in /  1.78 mm
14:27 41.9 °F /  5.5 °C 41.1 °F /  5.1 °C 29.64 in /  1003.6 hPa South 2.2 mph /  3.5 km/h 5.8 mph /  9.3 km/h 97 % 0.08 in /  2.03 mm
14:32 42.8 °F /  6 °C 42.3 °F /  5.7 °C 29.64 in /  1003.6 hPa SSW 4.1 mph /  6.6 km/h 5.8 mph /  9.3 km/h 98 % 0.07 in /  1.78 mm
14:37 44.9 °F /  7.2 °C 44.4 °F /  6.9 °C 29.65 in /  1003.9 hPa North 9.0 mph /  14.5 km/h 12.7 mph /  20.4 km/h 98 % 0.07 in /  1.78 mm
14:42 44.9 °F /  7.2 °C 44.4 °F /  6.9 °C 29.64 in /  1003.6 hPa South 1.2 mph /  1.9 km/h 3.5 mph /  5.6 km/h 98 % 0.06 in /  1.52 mm
14:47 44.8 °F /  7.1 °C 44.3 °F /  6.8 °C 29.64 in /  1003.6 hPa Calm   1.2 mph /  1.9 km/h 98 % 0.06 in /  1.52 mm
14:52 44.9 °F /  7.2 °C 44.4 °F /  6.9 °C 29.65 in /  1003.9 hPa SSE 1.1 mph /  1.8 km/h 2.3 mph /  3.7 km/h 98 % 0.05 in /  1.27 mm
14:57 46.6 °F /  8.1 °C 46.1 °F /  7.8 °C 29.64 in /  1003.6 hPa South 5.3 mph /  8.5 km/h 8.1 mph /  13 km/h 98 % 0.04 in /  1.02 mm
15:02 47.9 °F /  8.8 °C 47.4 °F /  8.6 °C 29.62 in /  1002.9 hPa SW 2.6 mph /  4.2 km/h 6.9 mph /  11.1 km/h 98 % 0.04 in /  1.02 mm
15:07 48.9 °F /  9.4 °C 48.4 °F /  9.1 °C 29.62 in /  1002.9 hPa SSW 1.0 mph /  1.6 km/h 4.6 mph /  7.4 km/h 98 % 0.03 in /  0.76 mm
15:12 49.9 °F /  9.9 °C 49.6 °F /  9.8 °C 29.62 in /  1002.9 hPa SSW 3.5 mph /  5.6 km/h 6.0 mph /  9.7 km/h 99 % 0.03 in /  0.76 mm
15:17 51.2 °F /  10.7 °C 50.7 °F /  10.4 °C 29.63 in /  1003.3 hPa South 5.8 mph /  9.3 km/h 9.0 mph /  14.5 km/h 98 % 0.04 in /  1.02 mm
15:22 51.9 °F /  11.1 °C 51.6 °F /  10.9 °C 29.62 in /  1002.9 hPa South 8.4 mph /  13.5 km/h 13.0 mph /  20.9 km/h 99 % 0.03 in /  0.76 mm
15:27 52.3 °F /  11.3 °C 52.0 °F /  11.1 °C 29.61 in /  1002.6 hPa SSW 7.8 mph /  12.6 km/h 11.5 mph /  18.5 km/h 99 % 0.02 in /  0.51 mm
15:32 52.6 °F /  11.4 °C 52.3 °F /  11.3 °C 29.60 in /  1002.3 hPa South 5.5 mph /  8.9 km/h 11.5 mph /  18.5 km/h 99 % 0.02 in /  0.51 mm
15:37 52.8 °F /  11.6 °C 52.5 °F /  11.4 °C 29.61 in /  1002.6 hPa South 6.9 mph /  11.1 km/h 11.5 mph /  18.5 km/h 99 % 0.01 in /  0.25 mm
15:42 52.8 °F /  11.6 °C 52.5 °F /  11.4 °C 29.61 in /  1002.6 hPa SSW 6.8 mph /  10.9 km/h 10.4 mph /  16.7 km/h 99 % 0.01 in /  0.25 mm
15:47 53.1 °F /  11.7 °C 52.8 °F /  11.6 °C 29.61 in /  1002.6 hPa South 7.4 mph /  11.9 km/h 10.4 mph /  16.7 km/h 99 % 0.01 in /  0.25 mm
15:52 53.4 °F /  11.9 °C 53.1 °F /  11.7 °C 29.60 in /  1002.3 hPa SSW 7.0 mph /  11.3 km/h 16.1 mph /  25.9 km/h 99 % 0.01 in /  0.25 mm
15:58 53.8 °F /  12.1 °C 53.5 °F /  11.9 °C 29.60 in /  1002.3 hPa South 9.7 mph /  15.6 km/h 12.7 mph /  20.4 km/h 99 % 0.02 in /  0.51 mm
16:03 54.6 °F /  12.6 °C 54.3 °F /  12.4 °C 29.60 in /  1002.3 hPa South 3.6 mph /  5.8 km/h 12.7 mph /  20.4 km/h 99 % 0.02 in /  0.51 mm
16:08 54.8 °F /  12.7 °C 54.5 °F /  12.5 °C 29.60 in /  1002.3 hPa South 7.9 mph /  12.7 km/h 11.5 mph /  18.5 km/h 99 % 0.02 in /  0.51 mm
16:13 54.8 °F /  12.7 °C 54.5 °F /  12.5 °C 29.60 in /  1002.3 hPa SSW 5.0 mph /  8 km/h 12.7 mph /  20.4 km/h 99 % 0.02 in /  0.51 mm
16:18 54.6 °F /  12.6 °C 54.3 °F /  12.4 °C 29.60 in /  1002.3 hPa South 6.2 mph /  10 km/h 11.5 mph /  18.5 km/h 99 % 0.01 in /  0.25 mm
16:23 54.6 °F /  12.6 °C 54.3 °F /  12.4 °C 29.61 in /  1002.6 hPa SSW 6.1 mph /  9.8 km/h 10.4 mph /  16.7 km/h 99 % 0.01 in /  0.25 mm
16:28 54.5 °F /  12.5 °C 54.2 °F /  12.3 °C 29.60 in /  1002.3 hPa SSW 5.7 mph /  9.2 km/h 9.2 mph /  14.8 km/h 99 % 0.01 in /  0.25 mm
16:33 54.6 °F /  12.6 °C 54.3 °F /  12.4 °C 29.60 in /  1002.3 hPa SW 6.1 mph /  9.8 km/h 11.5 mph /  18.5 km/h 99 % 0.02 in /  0.51 mm
16:38 54.9 °F /  12.7 °C 54.6 °F /  12.6 °C 29.61 in /  1002.6 hPa SW 5.8 mph /  9.3 km/h 16.0 mph /  25.7 km/h 99 % 0.02 in /  0.51 mm
16:43 55.2 °F /  12.9 °C 54.6 °F /  12.6 °C 29.60 in /  1002.3 hPa SSW 9.1 mph /  14.6 km/h 11.5 mph /  18.5 km/h 98 % 0.02 in /  0.51 mm
16:48 55.3 °F /  12.9 °C 54.7 °F /  12.6 °C 29.60 in /  1002.3 hPa South 6.0 mph /  9.7 km/h 12.7 mph /  20.4 km/h 98 % 0.02 in /  0.51 mm
16:53 55.5 °F /  13.1 °C 55.2 °F /  12.9 °C 29.61 in /  1002.6 hPa SSW 6.3 mph /  10.1 km/h 13.8 mph /  22.2 km/h 99 % 0.02 in /  0.51 mm
16:59 55.5 °F /  13.1 °C 55.2 °F /  12.9 °C 29.61 in /  1002.6 hPa South 7.3 mph /  11.7 km/h 11.5 mph /  18.5 km/h 99 % 0.01 in /  0.25 mm
17:04 55.5 °F /  13.1 °C 55.2 °F /  12.9 °C 29.61 in /  1002.6 hPa SSW 6.2 mph /  10 km/h 13.8 mph /  22.2 km/h 99 % 0.01 in /  0.25 mm
17:09 55.6 °F /  13.1 °C 55.3 °F /  12.9 °C 29.60 in /  1002.3 hPa SSW 6.1 mph /  9.8 km/h 10.4 mph /  16.7 km/h 99 % 0.01 in /  0.25 mm
17:14 55.7 °F /  13.2 °C 55.4 °F /  13 °C 29.60 in /  1002.3 hPa South 7.8 mph /  12.6 km/h 11.5 mph /  18.5 km/h 99 % 0.01 in /  0.25 mm
17:19 55.6 °F /  13.1 °C 55.3 °F /  12.9 °C 29.60 in /  1002.3 hPa South 6.9 mph /  11.1 km/h 11.5 mph /  18.5 km/h 99 % 0.01 in /  0.25 mm
17:24 55.5 °F /  13.1 °C 55.2 °F /  12.9 °C 29.60 in /  1002.3 hPa South 2.6 mph /  4.2 km/h 5.8 mph /  9.3 km/h 99 % 0.01 in /  0.25 mm
17:29 55.5 °F /  13.1 °C 55.2 °F /  12.9 °C 29.60 in /  1002.3 hPa SSW 5.5 mph /  8.9 km/h 8.1 mph /  13 km/h 99 % 0.02 in /  0.51 mm
17:34 55.5 °F /  13.1 °C 55.2 °F /  12.9 °C 29.60 in /  1002.3 hPa SSW 3.8 mph /  6.1 km/h 6.9 mph /  11.1 km/h 99 % 0.01 in /  0.25 mm
17:39 55.5 °F /  13.1 °C 55.2 °F /  12.9 °C 29.60 in /  1002.3 hPa SSW 5.5 mph /  8.9 km/h 11.5 mph /  18.5 km/h 99 % 0.01 in /  0.25 mm
17:44 55.4 °F /  13 °C 55.1 °F /  12.8 °C 29.60 in /  1002.3 hPa SW 6.4 mph /  10.3 km/h 11.5 mph /  18.5 km/h 99 % 0.01 in /  0.25 mm
17:49 55.2 °F /  12.9 °C 54.6 °F /  12.6 °C 29.60 in /  1002.3 hPa SSW 6.3 mph /  10.1 km/h 10.0 mph /  16.1 km/h 98 % 0.01 in /  0.25 mm
17:54 55.1 °F /  12.8 °C 54.5 °F /  12.5 °C 29.60 in /  1002.3 hPa WSW 4.9 mph /  7.9 km/h 11.5 mph /  18.5 km/h 98 % 0.02 in /  0.51 mm
17:59 54.9 °F /  12.7 °C 54.3 °F /  12.4 °C 29.63 in /  1003.3 hPa WSW 5.5 mph /  8.9 km/h 11.5 mph /  18.5 km/h 98 % 0.03 in /  0.76 mm
18:04 54.8 °F /  12.7 °C 54.2 °F /  12.3 °C 29.62 in /  1002.9 hPa SSW 5.0 mph /  8 km/h 11.5 mph /  18.5 km/h 98 % 0.05 in /  1.27 mm
18:09 54.5 °F /  12.5 °C 53.9 °F /  12.2 °C 29.61 in /  1002.6 hPa SW 5.8 mph /  9.3 km/h 9.0 mph /  14.5 km/h 98 % 0.05 in /  1.27 mm
18:14 54.4 °F /  12.4 °C 53.8 °F /  12.1 °C 29.62 in /  1002.9 hPa SW 8.2 mph /  13.2 km/h 13.8 mph /  22.2 km/h 98 % 0.06 in /  1.52 mm
18:19 54.2 °F /  12.3 °C 53.6 °F /  12 °C 29.61 in /  1002.6 hPa SSW 6.9 mph /  11.1 km/h 19.6 mph /  31.5 km/h 98 % 0.06 in /  1.52 mm
18:25 53.9 °F /  12.2 °C 53.3 °F /  11.8 °C 29.62 in /  1002.9 hPa SSW 5.6 mph /  9 km/h 13.8 mph /  22.2 km/h 98 % 0.06 in /  1.52 mm
18:30 53.7 °F /  12.1 °C 53.1 °F /  11.7 °C 29.62 in /  1002.9 hPa South 11.9 mph /  19.2 km/h 17.3 mph /  27.8 km/h 98 % 0.05 in /  1.27 mm
18:35 53.6 °F /  12 °C 53.0 °F /  11.7 °C 29.62 in /  1002.9 hPa SSW 10.0 mph /  16.1 km/h 16.1 mph /  25.9 km/h 98 % 0.05 in /  1.27 mm
18:40 53.6 °F /  12 °C 53.0 °F /  11.7 °C 29.62 in /  1002.9 hPa South 9.8 mph /  15.8 km/h 18.4 mph /  29.6 km/h 98 % 0.05 in /  1.27 mm
18:45 53.6 °F /  12 °C 53.0 °F /  11.7 °C 29.62 in /  1002.9 hPa SW 6.9 mph /  11.1 km/h 12.7 mph /  20.4 km/h 98 % 0.05 in /  1.27 mm
18:50 53.7 °F /  12.1 °C 53.1 °F /  11.7 °C 29.62 in /  1002.9 hPa South 6.1 mph /  9.8 km/h 11.0 mph /  17.7 km/h 98 % 0.05 in /  1.27 mm
18:55 53.8 °F /  12.1 °C 53.2 °F /  11.8 °C 29.62 in /  1002.9 hPa SSW 4.9 mph /  7.9 km/h 9.2 mph /  14.8 km/h 98 % 0.05 in /  1.27 mm
19:00 54.0 °F /  12.2 °C 53.4 °F /  11.9 °C 29.62 in /  1002.9 hPa SSW 5.8 mph /  9.3 km/h 8.1 mph /  13 km/h 98 % 0.03 in /  0.76 mm
19:05 54.3 °F /  12.4 °C 53.7 °F /  12.1 °C 29.62 in /  1002.9 hPa SSW 6.1 mph /  9.8 km/h 9.2 mph /  14.8 km/h 98 % 0.02 in /  0.51 mm
19:10 54.5 °F /  12.5 °C 53.9 °F /  12.2 °C 29.62 in /  1002.9 hPa South 5.8 mph /  9.3 km/h 11.0 mph /  17.7 km/h 98 % 0.02 in /  0.51 mm
19:15 54.5 °F /  12.5 °C 53.9 °F /  12.2 °C 29.62 in /  1002.9 hPa SSW 6.1 mph /  9.8 km/h 11.5 mph /  18.5 km/h 98 % 0.01 in /  0.25 mm
19:20 54.3 °F /  12.4 °C 53.7 °F /  12.1 °C 29.62 in /  1002.9 hPa South 7.6 mph /  12.2 km/h 13.8 mph /  22.2 km/h 98 % 0.01 in /  0.25 mm
19:25 54.2 °F /  12.3 °C 53.6 °F /  12 °C 29.63 in /  1003.3 hPa SSW 5.6 mph /  9 km/h 9.2 mph /  14.8 km/h 98 % 0.01 in /  0.25 mm
19:30 54.2 °F /  12.3 °C 53.6 °F /  12 °C 29.62 in /  1002.9 hPa SE 7.0 mph /  11.3 km/h 13.8 mph /  22.2 km/h 98 % 0.01 in /  0.25 mm
19:35 54.3 °F /  12.4 °C 53.7 °F /  12.1 °C 29.63 in /  1003.3 hPa South 6.0 mph /  9.7 km/h 9.2 mph /  14.8 km/h 98 % 0.01 in /  0.25 mm
19:40 54.4 °F /  12.4 °C 53.8 °F /  12.1 °C 29.63 in /  1003.3 hPa South 4.7 mph /  7.6 km/h 11.5 mph /  18.5 km/h 98 % 0.01 in /  0.25 mm
19:45 54.4 °F /  12.4 °C 53.8 °F /  12.1 °C 29.63 in /  1003.3 hPa South 8.9 mph /  14.3 km/h 11.5 mph /  18.5 km/h 98 % 0.01 in /  0.25 mm
19:51 54.5 °F /  12.5 °C 53.9 °F /  12.2 °C 29.63 in /  1003.3 hPa SSW 7.7 mph /  12.4 km/h 10.4 mph /  16.7 km/h 98 % 0.01 in /  0.25 mm
19:56 54.5 °F /  12.5 °C 54.0 °F /  12.2 °C 29.63 in /  1003.3 hPa South 8.0 mph /  12.9 km/h 15.0 mph /  24.1 km/h 98 % 0.00 in /  0 mm
20:00 54.5 °F /  12.5 °C 53.9 °F /  12.2 °C 29.63 in /  1003.3 hPa South 8.9 mph /  14.3 km/h 15.0 mph /  24.1 km/h 98 % 0.00 in /  0 mm
20:06 54.5 °F /  12.5 °C 53.9 °F /  12.2 °C 29.63 in /  1003.3 hPa South 6.0 mph /  9.7 km/h 16.0 mph /  25.7 km/h 98 % 0.00 in /  0 mm
20:11 54.5 °F /  12.5 °C 53.9 °F /  12.2 °C 29.63 in /  1003.3 hPa South 6.0 mph /  9.7 km/h 12.0 mph /  19.3 km/h 98 % 0.00 in /  0 mm
20:16 54.6 °F /  12.6 °C 54.0 °F /  12.2 °C 29.63 in /  1003.3 hPa SSW 6.0 mph /  9.7 km/h 13.0 mph /  20.9 km/h 98 % 0.00 in /  0 mm
20:21 54.6 °F /  12.6 °C 54.1 °F /  12.3 °C 29.63 in /  1003.3 hPa SSW 6.0 mph /  9.7 km/h 12.0 mph /  19.3 km/h 98 % 0.00 in /  0 mm
20:26 54.7 °F /  12.6 °C 54.2 °F /  12.3 °C 29.63 in /  1003.3 hPa South 7.0 mph /  11.3 km/h 14.0 mph /  22.5 km/h 98 % 0.00 in /  0 mm
20:30 54.8 °F /  12.7 °C 54.2 °F /  12.3 °C 29.62 in /  1002.9 hPa SSE 6.4 mph /  10.3 km/h 11.5 mph /  18.5 km/h 98 % 0.00 in /  0 mm
20:36 54.8 °F /  12.7 °C 54.2 °F /  12.3 °C 29.63 in /  1003.3 hPa South 6.0 mph /  9.7 km/h 12.0 mph /  19.3 km/h 98 % 0.00 in /  0 mm
20:40 54.7 °F /  12.6 °C 54.1 °F /  12.3 °C 29.63 in /  1003.3 hPa South 5.7 mph /  9.2 km/h 12.7 mph /  20.4 km/h 98 % 0.00 in /  0 mm
20:46 54.6 °F /  12.6 °C 54.0 °F /  12.2 °C 29.63 in /  1003.3 hPa SSW 6.0 mph /  9.7 km/h 13.0 mph /  20.9 km/h 98 % 0.00 in /  0 mm
20:51 54.6 °F /  12.6 °C 54.0 °F /  12.2 °C 29.63 in /  1003.3 hPa SSW 6.0 mph /  9.7 km/h 15.0 mph /  24.1 km/h 98 % 0.00 in /  0 mm
20:56 54.7 °F /  12.6 °C 54.1 °F /  12.3 °C 29.63 in /  1003.3 hPa SSE 5.7 mph /  9.2 km/h 8.1 mph /  13 km/h 98 % 0.00 in /  0 mm
21:00 54.6 °F /  12.6 °C 54.0 °F /  12.2 °C 29.63 in /  1003.3 hPa South 3.9 mph /  6.3 km/h 11.5 mph /  18.5 km/h 98 % 0.00 in /  0 mm
21:06 54.6 °F /  12.6 °C 54.0 °F /  12.2 °C 29.63 in /  1003.3 hPa SSW 6.0 mph /  9.7 km/h 12.0 mph /  19.3 km/h 98 % 0.00 in /  0 mm
21:11 54.6 °F /  12.6 °C 54.0 °F /  12.2 °C 29.63 in /  1003.3 hPa SSW 6.0 mph /  9.7 km/h 10.0 mph /  16.1 km/h 98 % 0.00 in /  0 mm
21:15 54.6 °F /  12.6 °C 54.0 °F /  12.2 °C 29.63 in /  1003.3 hPa South 5.7 mph /  9.2 km/h 8.1 mph /  13 km/h 98 % 0.00 in /  0 mm
21:21 54.6 °F /  12.6 °C 54.0 °F /  12.2 °C 29.63 in /  1003.3 hPa South 5.0 mph /  8 km/h 12.0 mph /  19.3 km/h 98 % 0.00 in /  0 mm
21:26 54.7 °F /  12.6 °C 54.1 °F /  12.3 °C 29.63 in /  1003.3 hPa SSW 6.0 mph /  9.7 km/h 12.0 mph /  19.3 km/h 98 % 0.00 in /  0 mm
21:31 54.8 °F /  12.7 °C 54.2 °F /  12.3 °C 29.63 in /  1003.3 hPa SSW 6.0 mph /  9.7 km/h 12.0 mph /  19.3 km/h 98 % 0.00 in /  0 mm
21:36 54.8 °F /  12.7 °C 54.3 °F /  12.4 °C 29.64 in /  1003.6 hPa SSW 5.0 mph /  8 km/h 12.0 mph /  19.3 km/h 98 % 0.00 in /  0 mm
21:41 54.8 °F /  12.7 °C 54.2 °F /  12.3 °C 29.63 in /  1003.3 hPa SSW 5.0 mph /  8 km/h 10.0 mph /  16.1 km/h 98 % 0.00 in /  0 mm
21:46 54.7 °F /  12.6 °C 54.1 °F /  12.3 °C 29.63 in /  1003.3 hPa SSW 6.0 mph /  9.7 km/h 12.0 mph /  19.3 km/h 98 % 0.00 in /  0 mm
21:51 54.6 °F /  12.6 °C 54.0 °F /  12.2 °C 29.63 in /  1003.3 hPa SSW 6.0 mph /  9.7 km/h 13.0 mph /  20.9 km/h 98 % 0.00 in /  0 mm
21:56 54.7 °F /  12.6 °C 54.1 °F /  12.3 °C 29.62 in /  1002.9 hPa SSW 5.0 mph /  8 km/h 12.0 mph /  19.3 km/h 98 % 0.00 in /  0 mm
22:00 54.9 °F /  12.7 °C 54.3 °F /  12.4 °C 29.63 in /  1003.3 hPa South 4.9 mph /  7.9 km/h 8.1 mph /  13 km/h 98 % 0.00 in /  0 mm
22:06 55.1 °F /  12.8 °C 54.6 °F /  12.6 °C 29.63 in /  1003.3 hPa SSW 5.0 mph /  8 km/h 8.0 mph /  12.9 km/h 98 % 0.00 in /  0 mm
22:11 55.4 °F /  13 °C 54.8 °F /  12.7 °C 29.62 in /  1002.9 hPa SSW 7.0 mph /  11.3 km/h 12.0 mph /  19.3 km/h 98 % 0.00 in /  0 mm
22:16 55.6 °F /  13.1 °C 55.3 °F /  12.9 °C 29.63 in /  1003.3 hPa SSW 6.0 mph /  9.7 km/h 15.0 mph /  24.1 km/h 99 % 0.00 in /  0 mm
22:21 55.7 °F /  13.2 °C 55.4 °F /  13 °C 29.62 in /  1002.9 hPa SSW 3.0 mph /  4.8 km/h 7.0 mph /  11.3 km/h 99 % 0.00 in /  0 mm
22:26 55.9 °F /  13.3 °C 55.3 °F /  12.9 °C 29.62 in /  1002.9 hPa SSW 6.0 mph /  9.7 km/h 12.0 mph /  19.3 km/h 98 % 0.00 in /  0 mm
22:31 56.0 °F /  13.3 °C 55.4 °F /  13 °C 29.63 in /  1003.3 hPa South 6.0 mph /  9.7 km/h 12.0 mph /  19.3 km/h 98 % 0.00 in /  0 mm
22:35 56.1 °F /  13.4 °C 55.5 °F /  13.1 °C 29.63 in /  1003.3 hPa SSW 5.3 mph /  8.5 km/h 10.4 mph /  16.7 km/h 98 % 0.00 in /  0 mm
22:40 56.2 °F /  13.4 °C 55.9 °F /  13.3 °C 29.64 in /  1003.6 hPa SSW 5.0 mph /  8 km/h 10.0 mph /  16.1 km/h 99 % 0.00 in /  0 mm
22:46 56.2 °F /  13.4 °C 55.9 °F /  13.3 °C 29.63 in /  1003.3 hPa SSW 5.0 mph /  8 km/h 9.0 mph /  14.5 km/h 99 % 0.00 in /  0 mm
22:50 56.2 °F /  13.4 °C 55.6 °F /  13.1 °C 29.64 in /  1003.6 hPa SSW 3.0 mph /  4.8 km/h 8.0 mph /  12.9 km/h 98 % 0.00 in /  0 mm
22:55 56.2 °F /  13.4 °C 55.7 °F /  13.2 °C 29.63 in /  1003.3 hPa SSW 6.0 mph /  9.7 km/h 8.0 mph /  12.9 km/h 98 % 0.00 in /  0 mm
23:01 56.5 °F /  13.6 °C 55.9 °F /  13.3 °C 29.63 in /  1003.3 hPa South 7.6 mph /  12.2 km/h 12.0 mph /  19.3 km/h 98 % 0.00 in /  0 mm
23:06 56.8 °F /  13.8 °C 56.5 °F /  13.6 °C 29.64 in /  1003.6 hPa SSW 4.6 mph /  7.4 km/h 15.0 mph /  24.1 km/h 99 % 0.00 in /  0 mm
23:11 57.0 °F /  13.9 °C 56.4 °F /  13.6 °C 29.63 in /  1003.3 hPa SSW 3.8 mph /  6.1 km/h 8.1 mph /  13 km/h 98 % 0.00 in /  0 mm
23:16 57.2 °F /  14 °C 56.6 °F /  13.7 °C 29.63 in /  1003.3 hPa SSW 5.3 mph /  8.5 km/h 9.2 mph /  14.8 km/h 98 % 0.00 in /  0 mm
23:21 57.3 °F /  14.1 °C 57.0 °F /  13.9 °C 29.64 in /  1003.6 hPa South 4.2 mph /  6.8 km/h 8.1 mph /  13 km/h 99 % 0.00 in /  0 mm
23:26 57.4 °F /  14.1 °C 57.1 °F /  13.9 °C 29.63 in /  1003.3 hPa South 3.3 mph /  5.3 km/h 5.8 mph /  9.3 km/h 99 % 0.00 in /  0 mm
23:31 57.3 °F /  14.1 °C 57.0 °F /  13.9 °C 29.63 in /  1003.3 hPa SSW 5.2 mph /  8.4 km/h 8.0 mph /  12.9 km/h 99 % 0.00 in /  0 mm
23:36 57.3 °F /  14.1 °C 57.0 °F /  13.9 °C 29.63 in /  1003.3 hPa SSE 5.2 mph /  8.4 km/h 6.9 mph /  11.1 km/h 99 % 0.00 in /  0 mm
23:41 57.2 °F /  14 °C 56.6 °F /  13.7 °C 29.64 in /  1003.6 hPa SW 5.5 mph /  8.9 km/h 9.2 mph /  14.8 km/h 98 % 0.00 in /  0 mm
23:46 57.2 °F /  14 °C 56.6 °F /  13.7 °C 29.64 in /  1003.6 hPa SW 4.9 mph /  7.9 km/h 8.1 mph /  13 km/h 98 % 0.00 in /  0 mm
23:51 57.1 °F /  13.9 °C 56.5 °F /  13.6 °C 29.64 in /  1003.6 hPa SSW 4.0 mph /  6.4 km/h 8.1 mph /  13 km/h 98 % 0.00 in /  0 mm
23:56 56.9 °F /  13.8 °C 56.3 °F /  13.5 °C 29.65 in /  1003.9 hPa SSW 4.5 mph /  7.2 km/h 11.5 mph /  18.5 km/h 98 % 0.00 in /  0 mm
Crab Meadow Weather
Compliments of Weather Underground - 3 mb

Script developed by  Jim McMurry - jmcmurry@mwt.net Adapted for the template by  Wim van der Kuil - Leuven-Template.eu

Recycling: We use over 80,000,000,000 aluminum soda cans every year.